sensor_id;sensor_type;location;lat;lon;timestamp;P1;durP1;ratioP1;P2;durP2;ratioP2
10174;SDS011;18221;38.704;0.152;2022-08-27T00:13:33;2.17;;;1.50;;
10174;SDS011;18221;38.704;0.152;2022-08-27T00:16:06;3.53;;;1.60;;
10174;SDS011;18221;38.704;0.152;2022-08-27T00:18:37;2.77;;;1.50;;
10174;SDS011;18221;38.704;0.152;2022-08-27T00:21:06;1.70;;;1.60;;
10174;SDS011;18221;38.704;0.152;2022-08-27T00:23:39;2.77;;;1.67;;
10174;SDS011;18221;38.704;0.152;2022-08-27T00:26:07;2.70;;;1.93;;
10174;SDS011;18221;38.704;0.152;2022-08-27T00:28:38;2.50;;;1.80;;
10174;SDS011;18221;38.704;0.152;2022-08-27T00:31:07;2.90;;;2.10;;
10174;SDS011;18221;38.704;0.152;2022-08-27T00:33:35;2.77;;;1.70;;
10174;SDS011;18221;38.704;0.152;2022-08-27T00:36:05;4.43;;;1.90;;
10174;SDS011;18221;38.704;0.152;2022-08-27T00:38:35;2.20;;;1.80;;
10174;SDS011;18221;38.704;0.152;2022-08-27T00:41:04;3.27;;;1.87;;
10174;SDS011;18221;38.704;0.152;2022-08-27T00:43:44;4.40;;;1.60;;
10174;SDS011;18221;38.704;0.152;2022-08-27T00:46:17;2.73;;;1.70;;
10174;SDS011;18221;38.704;0.152;2022-08-27T00:48:51;5.80;;;2.00;;
10174;SDS011;18221;38.704;0.152;2022-08-27T00:51:25;6.00;;;1.97;;
10174;SDS011;18221;38.704;0.152;2022-08-27T00:53:55;5.27;;;2.07;;
10174;SDS011;18221;38.704;0.152;2022-08-27T00:56:26;4.10;;;1.80;;
10174;SDS011;18221;38.704;0.152;2022-08-27T00:59:01;4.93;;;1.93;;
10174;SDS011;18221;38.704;0.152;2022-08-27T01:01:31;4.53;;;1.60;;
10174;SDS011;18221;38.704;0.152;2022-08-27T01:04:20;4.77;;;1.90;;
10174;SDS011;18221;38.704;0.152;2022-08-27T01:06:48;3.67;;;1.53;;
10174;SDS011;18221;38.704;0.152;2022-08-27T01:09:17;4.70;;;1.97;;
10174;SDS011;18221;38.704;0.152;2022-08-27T01:11:45;4.20;;;1.80;;
10174;SDS011;18221;38.704;0.152;2022-08-27T01:14:16;2.47;;;1.80;;
10174;SDS011;18221;38.704;0.152;2022-08-27T01:16:56;3.87;;;1.70;;
10174;SDS011;18221;38.704;0.152;2022-08-27T01:19:27;4.13;;;1.60;;
10174;SDS011;18221;38.704;0.152;2022-08-27T01:22:04;2.97;;;1.60;;
10174;SDS011;18221;38.704;0.152;2022-08-27T01:24:41;2.07;;;1.70;;
10174;SDS011;18221;38.704;0.152;2022-08-27T01:27:14;3.47;;;1.50;;
10174;SDS011;18221;38.704;0.152;2022-08-27T01:29:46;3.00;;;1.40;;
10174;SDS011;18221;38.704;0.152;2022-08-27T01:32:16;1.87;;;1.50;;
10174;SDS011;18221;38.704;0.152;2022-08-27T01:34:47;3.27;;;1.67;;
10174;SDS011;18221;38.704;0.152;2022-08-27T01:37:16;1.63;;;1.37;;
10174;SDS011;18221;38.704;0.152;2022-08-27T01:39:46;3.10;;;1.70;;
10174;SDS011;18221;38.704;0.152;2022-08-27T01:42:15;3.43;;;1.73;;
10174;SDS011;18221;38.704;0.152;2022-08-27T01:44:48;3.23;;;1.90;;
10174;SDS011;18221;38.704;0.152;2022-08-27T01:47:20;3.37;;;1.60;;
10174;SDS011;18221;38.704;0.152;2022-08-27T01:49:51;3.23;;;1.60;;
10174;SDS011;18221;38.704;0.152;2022-08-27T01:52:20;3.07;;;1.50;;
10174;SDS011;18221;38.704;0.152;2022-08-27T01:54:53;2.03;;;1.40;;
10174;SDS011;18221;38.704;0.152;2022-08-27T01:57:21;1.83;;;1.30;;
10174;SDS011;18221;38.704;0.152;2022-08-27T01:59:50;2.47;;;1.30;;
10174;SDS011;18221;38.704;0.152;2022-08-27T02:02:19;1.67;;;1.40;;
10174;SDS011;18221;38.704;0.152;2022-08-27T02:04:47;4.43;;;1.53;;
10174;SDS011;18221;38.704;0.152;2022-08-27T02:07:15;4.63;;;1.90;;
10174;SDS011;18221;38.704;0.152;2022-08-27T02:09:43;2.73;;;1.60;;
10174;SDS011;18221;38.704;0.152;2022-08-27T02:12:13;1.83;;;1.40;;
10174;SDS011;18221;38.704;0.152;2022-08-27T02:14:41;2.17;;;1.60;;
10174;SDS011;18221;38.704;0.152;2022-08-27T02:17:08;3.53;;;1.50;;
10174;SDS011;18221;38.704;0.152;2022-08-27T02:19:37;3.37;;;1.60;;
10174;SDS011;18221;38.704;0.152;2022-08-27T02:22:05;2.30;;;1.60;;
10174;SDS011;18221;38.704;0.152;2022-08-27T02:24:33;3.43;;;1.57;;
10174;SDS011;18221;38.704;0.152;2022-08-27T02:27:01;2.30;;;1.77;;
10174;SDS011;18221;38.704;0.152;2022-08-27T02:29:32;2.27;;;1.70;;
10174;SDS011;18221;38.704;0.152;2022-08-27T02:32:03;1.60;;;1.47;;
10174;SDS011;18221;38.704;0.152;2022-08-27T02:34:31;4.03;;;1.57;;
10174;SDS011;18221;38.704;0.152;2022-08-27T02:36:59;2.90;;;1.67;;
10174;SDS011;18221;38.704;0.152;2022-08-27T02:39:27;2.13;;;1.60;;
10174;SDS011;18221;38.704;0.152;2022-08-27T02:41:57;2.50;;;1.50;;
10174;SDS011;18221;38.704;0.152;2022-08-27T02:44:26;2.70;;;1.50;;
10174;SDS011;18221;38.704;0.152;2022-08-27T02:46:55;2.63;;;1.63;;
10174;SDS011;18221;38.704;0.152;2022-08-27T02:49:23;2.60;;;1.57;;
10174;SDS011;18221;38.704;0.152;2022-08-27T02:51:54;2.87;;;1.60;;
10174;SDS011;18221;38.704;0.152;2022-08-27T02:54:23;2.80;;;1.50;;
10174;SDS011;18221;38.704;0.152;2022-08-27T02:56:52;2.57;;;1.70;;
10174;SDS011;18221;38.704;0.152;2022-08-27T02:59:21;1.60;;;1.50;;
10174;SDS011;18221;38.704;0.152;2022-08-27T03:01:49;3.27;;;1.33;;
10174;SDS011;18221;38.704;0.152;2022-08-27T03:04:18;2.03;;;1.43;;
10174;SDS011;18221;38.704;0.152;2022-08-27T03:06:47;2.77;;;1.57;;
10174;SDS011;18221;38.704;0.152;2022-08-27T03:09:15;2.67;;;1.73;;
10174;SDS011;18221;38.704;0.152;2022-08-27T03:11:43;2.13;;;1.60;;
10174;SDS011;18221;38.704;0.152;2022-08-27T03:14:11;1.67;;;1.50;;
10174;SDS011;18221;38.704;0.152;2022-08-27T03:16:39;1.60;;;1.47;;
10174;SDS011;18221;38.704;0.152;2022-08-27T03:19:07;2.73;;;1.53;;
10174;SDS011;18221;38.704;0.152;2022-08-27T03:21:36;2.40;;;1.60;;
10174;SDS011;18221;38.704;0.152;2022-08-27T03:24:04;2.67;;;1.50;;
10174;SDS011;18221;38.704;0.152;2022-08-27T03:26:35;1.90;;;1.73;;
10174;SDS011;18221;38.704;0.152;2022-08-27T03:29:02;4.23;;;1.73;;
10174;SDS011;18221;38.704;0.152;2022-08-27T03:31:31;2.97;;;1.37;;
10174;SDS011;18221;38.704;0.152;2022-08-27T03:34:01;2.47;;;1.40;;
10174;SDS011;18221;38.704;0.152;2022-08-27T03:36:33;3.07;;;1.70;;
10174;SDS011;18221;38.704;0.152;2022-08-27T03:39:02;2.30;;;1.40;;
10174;SDS011;18221;38.704;0.152;2022-08-27T03:41:30;7.40;;;1.63;;
10174;SDS011;18221;38.704;0.152;2022-08-27T03:43:58;2.27;;;1.60;;
10174;SDS011;18221;38.704;0.152;2022-08-27T03:46:27;1.63;;;1.50;;
10174;SDS011;18221;38.704;0.152;2022-08-27T03:48:56;1.97;;;1.33;;
10174;SDS011;18221;38.704;0.152;2022-08-27T03:51:24;2.50;;;1.50;;
10174;SDS011;18221;38.704;0.152;2022-08-27T03:53:54;3.60;;;1.50;;
10174;SDS011;18221;38.704;0.152;2022-08-27T03:56:24;2.23;;;1.77;;
10174;SDS011;18221;38.704;0.152;2022-08-27T03:58:52;1.70;;;1.60;;
10174;SDS011;18221;38.704;0.152;2022-08-27T04:01:20;1.87;;;1.50;;
10174;SDS011;18221;38.704;0.152;2022-08-27T04:03:49;2.10;;;1.37;;
10174;SDS011;18221;38.704;0.152;2022-08-27T04:06:17;2.50;;;1.60;;
10174;SDS011;18221;38.704;0.152;2022-08-27T04:08:45;2.00;;;1.40;;
10174;SDS011;18221;38.704;0.152;2022-08-27T04:11:21;1.63;;;1.50;;
10174;SDS011;18221;38.704;0.152;2022-08-27T04:13:49;2.87;;;1.50;;
10174;SDS011;18221;38.704;0.152;2022-08-27T04:16:17;2.87;;;1.60;;
10174;SDS011;18221;38.704;0.152;2022-08-27T04:18:45;2.33;;;1.60;;
10174;SDS011;18221;38.704;0.152;2022-08-27T04:21:13;1.43;;;1.33;;
10174;SDS011;18221;38.704;0.152;2022-08-27T04:23:41;3.27;;;1.20;;
10174;SDS011;18221;38.704;0.152;2022-08-27T04:26:10;2.00;;;1.20;;
10174;SDS011;18221;38.704;0.152;2022-08-27T04:28:40;4.27;;;1.50;;
10174;SDS011;18221;38.704;0.152;2022-08-27T04:31:08;2.47;;;1.40;;
10174;SDS011;18221;38.704;0.152;2022-08-27T04:33:38;1.20;;;1.10;;
10174;SDS011;18221;38.704;0.152;2022-08-27T04:36:07;2.30;;;1.23;;
10174;SDS011;18221;38.704;0.152;2022-08-27T04:38:36;2.43;;;1.50;;
10174;SDS011;18221;38.704;0.152;2022-08-27T04:41:05;2.10;;;1.53;;
10174;SDS011;18221;38.704;0.152;2022-08-27T04:43:51;3.07;;;1.60;;
10174;SDS011;18221;38.704;0.152;2022-08-27T04:46:22;2.50;;;1.67;;
10174;SDS011;18221;38.704;0.152;2022-08-27T04:48:54;2.10;;;1.20;;
10174;SDS011;18221;38.704;0.152;2022-08-27T04:51:27;2.07;;;1.40;;
10174;SDS011;18221;38.704;0.152;2022-08-27T04:53:55;1.70;;;1.30;;
10174;SDS011;18221;38.704;0.152;2022-08-27T04:56:24;2.23;;;1.60;;
10174;SDS011;18221;38.704;0.152;2022-08-27T04:58:54;2.27;;;1.50;;
10174;SDS011;18221;38.704;0.152;2022-08-27T05:01:23;2.10;;;1.50;;
10174;SDS011;18221;38.704;0.152;2022-08-27T05:03:54;1.73;;;1.50;;
10174;SDS011;18221;38.704;0.152;2022-08-27T05:06:23;2.07;;;1.40;;
10174;SDS011;18221;38.704;0.152;2022-08-27T05:08:53;7.03;;;2.67;;
10174;SDS011;18221;38.704;0.152;2022-08-27T05:11:22;2.73;;;1.50;;
10174;SDS011;18221;38.704;0.152;2022-08-27T05:13:55;2.60;;;1.60;;
10174;SDS011;18221;38.704;0.152;2022-08-27T05:16:23;4.47;;;1.80;;
10174;SDS011;18221;38.704;0.152;2022-08-27T05:18:51;3.53;;;1.60;;
10174;SDS011;18221;38.704;0.152;2022-08-27T05:21:20;2.43;;;1.50;;
10174;SDS011;18221;38.704;0.152;2022-08-27T05:23:50;2.10;;;1.50;;
10174;SDS011;18221;38.704;0.152;2022-08-27T05:26:20;2.23;;;1.77;;
10174;SDS011;18221;38.704;0.152;2022-08-27T05:28:49;2.37;;;2.00;;
10174;SDS011;18221;38.704;0.152;2022-08-27T05:31:19;1.97;;;1.50;;
10174;SDS011;18221;38.704;0.152;2022-08-27T05:33:48;3.10;;;1.53;;
10174;SDS011;18221;38.704;0.152;2022-08-27T05:36:17;2.40;;;1.40;;
10174;SDS011;18221;38.704;0.152;2022-08-27T05:38:50;2.03;;;1.60;;
10174;SDS011;18221;38.704;0.152;2022-08-27T05:41:19;2.27;;;1.43;;
10174;SDS011;18221;38.704;0.152;2022-08-27T05:43:51;2.27;;;1.67;;
10174;SDS011;18221;38.704;0.152;2022-08-27T05:46:24;1.93;;;1.47;;
10174;SDS011;18221;38.704;0.152;2022-08-27T05:48:54;4.50;;;1.60;;
10174;SDS011;18221;38.704;0.152;2022-08-27T05:51:25;3.00;;;1.57;;
10174;SDS011;18221;38.704;0.152;2022-08-27T05:53:57;2.67;;;1.60;;
10174;SDS011;18221;38.704;0.152;2022-08-27T05:56:28;2.17;;;1.57;;
10174;SDS011;18221;38.704;0.152;2022-08-27T05:58:59;1.97;;;1.50;;
10174;SDS011;18221;38.704;0.152;2022-08-27T06:01:46;4.43;;;1.73;;
10174;SDS011;18221;38.704;0.152;2022-08-27T06:04:17;1.43;;;1.33;;
10174;SDS011;18221;38.704;0.152;2022-08-27T06:06:47;2.00;;;1.50;;
10174;SDS011;18221;38.704;0.152;2022-08-27T06:09:17;2.13;;;1.70;;
10174;SDS011;18221;38.704;0.152;2022-08-27T06:11:47;4.90;;;1.50;;
10174;SDS011;18221;38.704;0.152;2022-08-27T06:14:16;2.50;;;1.57;;
10174;SDS011;18221;38.704;0.152;2022-08-27T06:16:43;1.77;;;1.40;;
10174;SDS011;18221;38.704;0.152;2022-08-27T06:19:13;2.47;;;1.60;;
10174;SDS011;18221;38.704;0.152;2022-08-27T06:21:41;2.30;;;1.50;;
10174;SDS011;18221;38.704;0.152;2022-08-27T06:24:09;1.70;;;1.40;;
10174;SDS011;18221;38.704;0.152;2022-08-27T06:26:40;3.37;;;1.73;;
10174;SDS011;18221;38.704;0.152;2022-08-27T06:29:10;2.87;;;1.70;;
10174;SDS011;18221;38.704;0.152;2022-08-27T06:31:39;1.40;;;1.30;;
10174;SDS011;18221;38.704;0.152;2022-08-27T06:34:09;2.77;;;1.50;;
10174;SDS011;18221;38.704;0.152;2022-08-27T06:36:40;2.53;;;1.43;;
10174;SDS011;18221;38.704;0.152;2022-08-27T06:39:10;3.10;;;1.63;;
10174;SDS011;18221;38.704;0.152;2022-08-27T06:41:40;2.40;;;1.40;;
10174;SDS011;18221;38.704;0.152;2022-08-27T06:44:10;4.93;;;1.60;;
10174;SDS011;18221;38.704;0.152;2022-08-27T06:46:40;2.60;;;1.50;;
10174;SDS011;18221;38.704;0.152;2022-08-27T06:49:10;5.20;;;1.63;;
10174;SDS011;18221;38.704;0.152;2022-08-27T06:51:39;2.77;;;1.70;;
10174;SDS011;18221;38.704;0.152;2022-08-27T06:54:12;3.93;;;1.50;;
10174;SDS011;18221;38.704;0.152;2022-08-27T06:56:42;3.30;;;1.60;;
10174;SDS011;18221;38.704;0.152;2022-08-27T06:59:10;4.27;;;1.40;;
10174;SDS011;18221;38.704;0.152;2022-08-27T07:01:42;2.60;;;1.40;;
10174;SDS011;18221;38.704;0.152;2022-08-27T07:04:18;2.63;;;1.50;;
10174;SDS011;18221;38.704;0.152;2022-08-27T07:06:47;2.33;;;1.47;;
10174;SDS011;18221;38.704;0.152;2022-08-27T07:09:16;2.60;;;1.50;;
10174;SDS011;18221;38.704;0.152;2022-08-27T07:11:45;2.13;;;1.50;;
10174;SDS011;18221;38.704;0.152;2022-08-27T07:14:13;3.17;;;1.50;;
10174;SDS011;18221;38.704;0.152;2022-08-27T07:16:42;1.20;;;1.10;;
10174;SDS011;18221;38.704;0.152;2022-08-27T07:19:10;3.08;;;1.48;;
10174;SDS011;18221;38.704;0.152;2022-08-27T07:21:42;6.22;;;1.70;;
10174;SDS011;18221;38.704;0.152;2022-08-27T07:24:10;2.05;;;1.40;;
10174;SDS011;18221;38.704;0.152;2022-08-27T07:26:40;2.17;;;1.50;;
10174;SDS011;18221;38.704;0.152;2022-08-27T07:29:11;3.33;;;1.38;;
10174;SDS011;18221;38.704;0.152;2022-08-27T07:31:40;3.38;;;1.38;;
10174;SDS011;18221;38.704;0.152;2022-08-27T07:34:08;2.83;;;1.20;;
10174;SDS011;18221;38.704;0.152;2022-08-27T07:36:37;1.63;;;1.25;;
10174;SDS011;18221;38.704;0.152;2022-08-27T07:39:06;1.92;;;1.20;;
10174;SDS011;18221;38.704;0.152;2022-08-27T07:41:35;3.70;;;1.40;;
10174;SDS011;18221;38.704;0.152;2022-08-27T07:44:24;2.97;;;1.50;;
10174;SDS011;18221;38.704;0.152;2022-08-27T07:46:52;3.83;;;1.40;;
10174;SDS011;18221;38.704;0.152;2022-08-27T07:49:22;3.15;;;1.50;;
10174;SDS011;18221;38.704;0.152;2022-08-27T07:51:53;2.08;;;1.30;;
10174;SDS011;18221;38.704;0.152;2022-08-27T07:54:22;2.72;;;1.55;;
10174;SDS011;18221;38.704;0.152;2022-08-27T07:56:50;3.75;;;1.50;;
10174;SDS011;18221;38.704;0.152;2022-08-27T07:59:19;2.35;;;1.00;;
10174;SDS011;18221;38.704;0.152;2022-08-27T08:01:48;4.80;;;1.67;;
10174;SDS011;18221;38.704;0.152;2022-08-27T08:04:17;2.10;;;1.60;;
10174;SDS011;18221;38.704;0.152;2022-08-27T08:06:45;1.75;;;1.30;;
10174;SDS011;18221;38.704;0.152;2022-08-27T08:09:13;2.28;;;1.50;;
10174;SDS011;18221;38.704;0.152;2022-08-27T08:11:43;1.85;;;1.40;;
10174;SDS011;18221;38.704;0.152;2022-08-27T08:14:14;3.20;;;1.60;;
10174;SDS011;18221;38.704;0.152;2022-08-27T08:16:42;3.28;;;1.58;;
10174;SDS011;18221;38.704;0.152;2022-08-27T08:19:10;2.55;;;1.50;;
10174;SDS011;18221;38.704;0.152;2022-08-27T08:21:38;2.40;;;1.65;;
10174;SDS011;18221;38.704;0.152;2022-08-27T08:24:07;2.60;;;1.60;;
10174;SDS011;18221;38.704;0.152;2022-08-27T08:26:35;2.97;;;1.80;;
10174;SDS011;18221;38.704;0.152;2022-08-27T08:29:07;2.47;;;1.33;;
10174;SDS011;18221;38.704;0.152;2022-08-27T08:31:35;4.10;;;1.73;;
10174;SDS011;18221;38.704;0.152;2022-08-27T08:34:03;2.38;;;1.63;;
10174;SDS011;18221;38.704;0.152;2022-08-27T08:36:31;2.60;;;1.77;;
10174;SDS011;18221;38.704;0.152;2022-08-27T08:38:59;2.70;;;1.60;;
10174;SDS011;18221;38.704;0.152;2022-08-27T08:41:34;2.88;;;1.92;;
10174;SDS011;18221;38.704;0.152;2022-08-27T08:44:12;3.75;;;1.77;;
10174;SDS011;18221;38.704;0.152;2022-08-27T08:46:49;3.33;;;1.92;;
10174;SDS011;18221;38.704;0.152;2022-08-27T08:49:28;4.78;;;1.77;;
10174;SDS011;18221;38.704;0.152;2022-08-27T08:52:09;2.20;;;1.77;;
10174;SDS011;18221;38.704;0.152;2022-08-27T08:54:47;3.05;;;1.90;;
10174;SDS011;18221;38.704;0.152;2022-08-27T08:57:18;2.22;;;1.80;;
10174;SDS011;18221;38.704;0.152;2022-08-27T09:00:02;1.55;;;1.45;;
10174;SDS011;18221;38.704;0.152;2022-08-27T09:02:36;2.63;;;1.70;;
10174;SDS011;18221;38.704;0.152;2022-08-27T09:05:05;2.63;;;1.73;;
10174;SDS011;18221;38.704;0.152;2022-08-27T09:07:36;5.32;;;2.20;;
10174;SDS011;18221;38.704;0.152;2022-08-27T09:10:16;1.95;;;1.73;;
10174;SDS011;18221;38.704;0.152;2022-08-27T09:12:55;1.92;;;1.58;;
10174;SDS011;18221;38.704;0.152;2022-08-27T09:15:30;3.75;;;1.98;;
10174;SDS011;18221;38.704;0.152;2022-08-27T09:18:06;1.92;;;1.60;;
10174;SDS011;18221;38.704;0.152;2022-08-27T09:20:41;3.55;;;2.05;;
10174;SDS011;18221;38.704;0.152;2022-08-27T09:23:17;2.67;;;1.73;;
10174;SDS011;18221;38.704;0.152;2022-08-27T09:25:52;3.40;;;1.65;;
10174;SDS011;18221;38.704;0.152;2022-08-27T09:28:22;5.45;;;1.70;;
10174;SDS011;18221;38.704;0.152;2022-08-27T09:31:12;3.25;;;1.90;;
10174;SDS011;18221;38.704;0.152;2022-08-27T09:33:45;4.43;;;1.98;;
10174;SDS011;18221;38.704;0.152;2022-08-27T09:36:14;3.78;;;1.73;;
10174;SDS011;18221;38.704;0.152;2022-08-27T09:38:49;3.20;;;1.73;;
10174;SDS011;18221;38.704;0.152;2022-08-27T09:41:22;2.58;;;1.80;;
10174;SDS011;18221;38.704;0.152;2022-08-27T09:43:56;3.75;;;2.10;;
10174;SDS011;18221;38.704;0.152;2022-08-27T09:46:27;3.50;;;1.80;;
10174;SDS011;18221;38.704;0.152;2022-08-27T09:48:55;4.30;;;2.00;;
10174;SDS011;18221;38.704;0.152;2022-08-27T09:51:24;3.10;;;1.90;;
10174;SDS011;18221;38.704;0.152;2022-08-27T09:53:56;3.80;;;1.90;;
10174;SDS011;18221;38.704;0.152;2022-08-27T09:56:28;4.10;;;2.08;;
10174;SDS011;18221;38.704;0.152;2022-08-27T09:59:00;2.85;;;1.90;;
10174;SDS011;18221;38.704;0.152;2022-08-27T10:01:36;4.55;;;2.03;;
10174;SDS011;18221;38.704;0.152;2022-08-27T10:04:25;4.80;;;2.10;;
10174;SDS011;18221;38.704;0.152;2022-08-27T10:07:10;5.70;;;2.20;;
10174;SDS011;18221;38.704;0.152;2022-08-27T10:09:53;3.88;;;1.85;;
10174;SDS011;18221;38.704;0.152;2022-08-27T10:12:48;4.18;;;2.10;;
10174;SDS011;18221;38.704;0.152;2022-08-27T10:15:24;2.80;;;1.85;;
10174;SDS011;18221;38.704;0.152;2022-08-27T10:18:05;9.15;;;1.95;;
10174;SDS011;18221;38.704;0.152;2022-08-27T10:20:40;2.80;;;1.77;;
10174;SDS011;18221;38.704;0.152;2022-08-27T10:23:25;4.50;;;2.05;;
10174;SDS011;18221;38.704;0.152;2022-08-27T10:26:08;5.63;;;1.90;;
10174;SDS011;18221;38.704;0.152;2022-08-27T10:28:53;3.70;;;1.90;;
10174;SDS011;18221;38.704;0.152;2022-08-27T10:31:36;3.08;;;1.70;;
10174;SDS011;18221;38.704;0.152;2022-08-27T10:34:19;2.78;;;1.70;;
10174;SDS011;18221;38.704;0.152;2022-08-27T10:37:19;3.33;;;1.65;;
10174;SDS011;18221;38.704;0.152;2022-08-27T10:40:11;2.90;;;1.90;;
10174;SDS011;18221;38.704;0.152;2022-08-27T10:42:50;2.80;;;1.80;;
10174;SDS011;18221;38.704;0.152;2022-08-27T10:45:37;5.72;;;2.20;;
10174;SDS011;18221;38.704;0.152;2022-08-27T10:48:19;2.78;;;1.70;;
10174;SDS011;18221;38.704;0.152;2022-08-27T10:50:59;5.60;;;2.28;;
10174;SDS011;18221;38.704;0.152;2022-08-27T10:53:46;5.07;;;1.90;;
10174;SDS011;18221;38.704;0.152;2022-08-27T10:56:28;6.80;;;2.20;;
10174;SDS011;18221;38.704;0.152;2022-08-27T10:59:05;4.65;;;1.70;;
10174;SDS011;18221;38.704;0.152;2022-08-27T11:01:47;4.82;;;2.33;;
10174;SDS011;18221;38.704;0.152;2022-08-27T11:04:29;3.67;;;1.70;;
10174;SDS011;18221;38.704;0.152;2022-08-27T11:07:06;4.22;;;2.20;;
10174;SDS011;18221;38.704;0.152;2022-08-27T11:09:45;7.68;;;2.33;;
10174;SDS011;18221;38.704;0.152;2022-08-27T11:12:20;2.90;;;1.85;;
10174;SDS011;18221;38.704;0.152;2022-08-27T11:14:59;6.03;;;2.28;;
10174;SDS011;18221;38.704;0.152;2022-08-27T11:17:34;3.10;;;1.90;;
10174;SDS011;18221;38.704;0.152;2022-08-27T11:20:12;5.25;;;2.22;;
10174;SDS011;18221;38.704;0.152;2022-08-27T11:22:48;3.13;;;1.80;;
10174;SDS011;18221;38.704;0.152;2022-08-27T11:25:33;4.72;;;1.90;;
10174;SDS011;18221;38.704;0.152;2022-08-27T11:28:14;4.40;;;2.03;;
10174;SDS011;18221;38.704;0.152;2022-08-27T11:30:51;6.25;;;2.00;;
10174;SDS011;18221;38.704;0.152;2022-08-27T11:33:31;5.40;;;2.00;;
10174;SDS011;18221;38.704;0.152;2022-08-27T11:36:18;4.80;;;2.13;;
10174;SDS011;18221;38.704;0.152;2022-08-27T11:39:18;5.25;;;1.88;;
10174;SDS011;18221;38.704;0.152;2022-08-27T11:42:06;7.43;;;2.45;;
10174;SDS011;18221;38.704;0.152;2022-08-27T11:44:47;5.28;;;1.90;;
10174;SDS011;18221;38.704;0.152;2022-08-27T11:47:25;5.07;;;2.08;;
10174;SDS011;18221;38.704;0.152;2022-08-27T11:49:55;7.13;;;2.15;;
10174;SDS011;18221;38.704;0.152;2022-08-27T11:52:27;7.47;;;2.55;;
10174;SDS011;18221;38.704;0.152;2022-08-27T11:55:10;3.95;;;2.00;;
10174;SDS011;18221;38.704;0.152;2022-08-27T11:58:01;3.88;;;1.90;;
10174;SDS011;18221;38.704;0.152;2022-08-27T12:00:34;7.40;;;2.22;;
10174;SDS011;18221;38.704;0.152;2022-08-27T12:03:05;2.70;;;1.85;;
10174;SDS011;18221;38.704;0.152;2022-08-27T12:05:48;7.00;;;2.15;;
10174;SDS011;18221;38.704;0.152;2022-08-27T12:08:35;3.53;;;2.00;;
10174;SDS011;18221;38.704;0.152;2022-08-27T12:11:10;4.20;;;1.83;;
10174;SDS011;18221;38.704;0.152;2022-08-27T12:13:58;4.82;;;1.90;;
10174;SDS011;18221;38.704;0.152;2022-08-27T12:16:41;5.18;;;2.35;;
10174;SDS011;18221;38.704;0.152;2022-08-27T12:19:24;5.10;;;2.20;;
10174;SDS011;18221;38.704;0.152;2022-08-27T12:22:16;3.92;;;1.98;;
10174;SDS011;18221;38.704;0.152;2022-08-27T12:25:21;4.30;;;1.92;;
10174;SDS011;18221;38.704;0.152;2022-08-27T12:27:55;7.10;;;2.45;;
10174;SDS011;18221;38.704;0.152;2022-08-27T12:30:28;5.53;;;2.00;;
10174;SDS011;18221;38.704;0.152;2022-08-27T12:33:04;2.70;;;1.92;;
10174;SDS011;18221;38.704;0.152;2022-08-27T12:35:45;4.90;;;2.10;;
10174;SDS011;18221;38.704;0.152;2022-08-27T12:38:18;3.65;;;2.28;;
10174;SDS011;18221;38.704;0.152;2022-08-27T12:41:01;7.70;;;1.90;;
10174;SDS011;18221;38.704;0.152;2022-08-27T12:43:34;4.22;;;2.30;;
10174;SDS011;18221;38.704;0.152;2022-08-27T12:46:10;5.70;;;2.15;;
10174;SDS011;18221;38.704;0.152;2022-08-27T12:48:44;4.72;;;1.83;;
10174;SDS011;18221;38.704;0.152;2022-08-27T12:51:18;3.53;;;1.85;;
10174;SDS011;18221;38.704;0.152;2022-08-27T12:53:52;3.70;;;1.85;;
10174;SDS011;18221;38.704;0.152;2022-08-27T12:56:43;7.35;;;2.05;;
10174;SDS011;18221;38.704;0.152;2022-08-27T13:02:36;4.15;;;2.10;;
10174;SDS011;18221;38.704;0.152;2022-08-27T13:05:34;2.38;;;1.80;;
10174;SDS011;18221;38.704;0.152;2022-08-27T13:08:16;6.18;;;1.92;;
10174;SDS011;18221;38.704;0.152;2022-08-27T13:10:47;3.60;;;1.90;;
10174;SDS011;18221;38.704;0.152;2022-08-27T13:13:19;4.05;;;1.98;;
10174;SDS011;18221;38.704;0.152;2022-08-27T13:15:51;4.65;;;1.90;;
10174;SDS011;18221;38.704;0.152;2022-08-27T13:18:23;4.40;;;1.92;;
10174;SDS011;18221;38.704;0.152;2022-08-27T13:20:59;5.10;;;1.90;;
10174;SDS011;18221;38.704;0.152;2022-08-27T13:23:30;3.63;;;1.90;;
10174;SDS011;18221;38.704;0.152;2022-08-27T13:26:02;6.72;;;2.15;;
10174;SDS011;18221;38.704;0.152;2022-08-27T13:28:33;3.30;;;1.70;;
10174;SDS011;18221;38.704;0.152;2022-08-27T13:31:07;5.75;;;1.90;;
10174;SDS011;18221;38.704;0.152;2022-08-27T13:33:37;3.85;;;1.90;;
10174;SDS011;18221;38.704;0.152;2022-08-27T13:36:07;6.78;;;1.70;;
10174;SDS011;18221;38.704;0.152;2022-08-27T13:38:37;3.30;;;1.70;;
10174;SDS011;18221;38.704;0.152;2022-08-27T13:41:09;6.55;;;1.90;;
10174;SDS011;18221;38.704;0.152;2022-08-27T13:43:48;4.22;;;1.92;;
10174;SDS011;18221;38.704;0.152;2022-08-27T13:46:18;4.18;;;2.00;;
10174;SDS011;18221;38.704;0.152;2022-08-27T13:48:50;3.58;;;2.10;;
10174;SDS011;18221;38.704;0.152;2022-08-27T13:51:23;4.55;;;1.95;;
10174;SDS011;18221;38.704;0.152;2022-08-27T13:53:57;3.88;;;2.10;;
10174;SDS011;18221;38.704;0.152;2022-08-27T13:56:41;5.15;;;2.38;;
10174;SDS011;18221;38.704;0.152;2022-08-27T13:59:32;4.30;;;2.10;;
10174;SDS011;18221;38.704;0.152;2022-08-27T14:02:17;3.20;;;2.00;;
10174;SDS011;18221;38.704;0.152;2022-08-27T14:05:01;4.07;;;2.05;;
10174;SDS011;18221;38.704;0.152;2022-08-27T14:07:37;2.85;;;1.92;;
10174;SDS011;18221;38.704;0.152;2022-08-27T14:10:27;5.60;;;1.98;;
10174;SDS011;18221;38.704;0.152;2022-08-27T14:13:00;3.60;;;2.35;;
10174;SDS011;18221;38.704;0.152;2022-08-27T14:15:32;4.60;;;2.00;;
10174;SDS011;18221;38.704;0.152;2022-08-27T14:18:18;3.25;;;1.92;;
10174;SDS011;18221;38.704;0.152;2022-08-27T14:20:54;2.63;;;1.95;;
10174;SDS011;18221;38.704;0.152;2022-08-27T14:23:24;4.53;;;1.95;;
10174;SDS011;18221;38.704;0.152;2022-08-27T14:25:55;4.22;;;2.15;;
10174;SDS011;18221;38.704;0.152;2022-08-27T14:28:26;5.07;;;2.05;;
10174;SDS011;18221;38.704;0.152;2022-08-27T14:30:55;4.22;;;2.15;;
10174;SDS011;18221;38.704;0.152;2022-08-27T14:33:25;2.25;;;1.80;;
10174;SDS011;18221;38.704;0.152;2022-08-27T14:35:53;3.53;;;1.92;;
10174;SDS011;18221;38.704;0.152;2022-08-27T14:38:23;3.60;;;1.80;;
10174;SDS011;18221;38.704;0.152;2022-08-27T14:40:55;3.38;;;2.00;;
10174;SDS011;18221;38.704;0.152;2022-08-27T14:43:23;3.78;;;1.88;;
10174;SDS011;18221;38.704;0.152;2022-08-27T14:45:51;2.83;;;1.80;;
10174;SDS011;18221;38.704;0.152;2022-08-27T14:48:22;3.58;;;2.08;;
10174;SDS011;18221;38.704;0.152;2022-08-27T14:50:56;3.15;;;1.92;;
10174;SDS011;18221;38.704;0.152;2022-08-27T14:53:29;2.38;;;1.70;;
10174;SDS011;18221;38.704;0.152;2022-08-27T14:55:59;4.03;;;1.98;;
10174;SDS011;18221;38.704;0.152;2022-08-27T14:58:29;4.65;;;2.17;;
10174;SDS011;18221;38.704;0.152;2022-08-27T15:00:57;4.07;;;1.80;;
10174;SDS011;18221;38.704;0.152;2022-08-27T15:03:29;4.38;;;1.80;;
10174;SDS011;18221;38.704;0.152;2022-08-27T15:06:04;5.38;;;1.80;;
10174;SDS011;18221;38.704;0.152;2022-08-27T15:08:32;4.30;;;1.92;;
10174;SDS011;18221;38.704;0.152;2022-08-27T15:11:00;4.07;;;1.85;;
10174;SDS011;18221;38.704;0.152;2022-08-27T15:13:29;5.10;;;2.00;;
10174;SDS011;18221;38.704;0.152;2022-08-27T15:15:58;2.88;;;1.70;;
10174;SDS011;18221;38.704;0.152;2022-08-27T15:18:29;3.97;;;1.90;;
10174;SDS011;18221;38.704;0.152;2022-08-27T15:20:57;4.35;;;1.88;;
10174;SDS011;18221;38.704;0.152;2022-08-27T15:23:25;4.18;;;1.67;;
10174;SDS011;18221;38.704;0.152;2022-08-27T15:25:53;4.57;;;1.67;;
10174;SDS011;18221;38.704;0.152;2022-08-27T15:28:24;4.03;;;1.55;;
10174;SDS011;18221;38.704;0.152;2022-08-27T15:30:52;3.88;;;1.77;;
10174;SDS011;18221;38.704;0.152;2022-08-27T15:33:20;3.85;;;1.80;;
10174;SDS011;18221;38.704;0.152;2022-08-27T15:35:49;3.72;;;1.90;;
10174;SDS011;18221;38.704;0.152;2022-08-27T15:38:20;3.05;;;1.75;;